sensor_id;sensor_type;location;lat;lon;timestamp;P1;durP1;ratioP1;P2;durP2;ratioP2
10410;SDS011;5251;52.112;8.606;2023-12-04T00:01:47;18.92;;;11.70;;
10410;SDS011;5251;52.112;8.606;2023-12-04T00:04:13;18.73;;;11.48;;
10410;SDS011;5251;52.112;8.606;2023-12-04T00:06:39;18.90;;;11.68;;
10410;SDS011;5251;52.112;8.606;2023-12-04T00:09:06;16.90;;;11.15;;
10410;SDS011;5251;52.112;8.606;2023-12-04T00:11:32;15.43;;;10.95;;
10410;SDS011;5251;52.112;8.606;2023-12-04T00:13:58;17.67;;;11.13;;
10410;SDS011;5251;52.112;8.606;2023-12-04T00:16:24;17.15;;;11.30;;
10410;SDS011;5251;52.112;8.606;2023-12-04T00:18:49;16.42;;;10.68;;
10410;SDS011;5251;52.112;8.606;2023-12-04T00:21:15;18.35;;;11.27;;
10410;SDS011;5251;52.112;8.606;2023-12-04T00:23:41;14.43;;;10.23;;
10410;SDS011;5251;52.112;8.606;2023-12-04T00:26:06;15.45;;;10.48;;
10410;SDS011;5251;52.112;8.606;2023-12-04T00:28:35;15.23;;;10.32;;
10410;SDS011;5251;52.112;8.606;2023-12-04T00:31:01;15.88;;;10.25;;
10410;SDS011;5251;52.112;8.606;2023-12-04T00:33:27;15.57;;;10.32;;
10410;SDS011;5251;52.112;8.606;2023-12-04T00:35:52;14.98;;;9.93;;
10410;SDS011;5251;52.112;8.606;2023-12-04T00:38:18;13.00;;;9.52;;
10410;SDS011;5251;52.112;8.606;2023-12-04T00:40:44;13.43;;;9.50;;
10410;SDS011;5251;52.112;8.606;2023-12-04T00:43:09;13.43;;;9.50;;
10410;SDS011;5251;52.112;8.606;2023-12-04T00:45:35;14.13;;;9.35;;
10410;SDS011;5251;52.112;8.606;2023-12-04T00:48:01;14.40;;;9.65;;
10410;SDS011;5251;52.112;8.606;2023-12-04T00:50:27;13.93;;;9.13;;
10410;SDS011;5251;52.112;8.606;2023-12-04T00:52:53;13.77;;;9.57;;
10410;SDS011;5251;52.112;8.606;2023-12-04T00:55:18;14.15;;;8.85;;
10410;SDS011;5251;52.112;8.606;2023-12-04T00:57:45;14.05;;;8.85;;
10410;SDS011;5251;52.112;8.606;2023-12-04T01:00:10;13.85;;;9.50;;
10410;SDS011;5251;52.112;8.606;2023-12-04T01:02:37;13.57;;;9.50;;
10410;SDS011;5251;52.112;8.606;2023-12-04T01:05:02;12.38;;;8.80;;
10410;SDS011;5251;52.112;8.606;2023-12-04T01:07:28;13.25;;;9.13;;
10410;SDS011;5251;52.112;8.606;2023-12-04T01:09:54;14.10;;;9.40;;
10410;SDS011;5251;52.112;8.606;2023-12-04T01:12:20;14.95;;;9.57;;
10410;SDS011;5251;52.112;8.606;2023-12-04T01:14:46;14.30;;;9.20;;
10410;SDS011;5251;52.112;8.606;2023-12-04T01:17:11;13.52;;;9.32;;
10410;SDS011;5251;52.112;8.606;2023-12-04T01:19:37;12.00;;;8.82;;
10410;SDS011;5251;52.112;8.606;2023-12-04T01:22:03;11.85;;;8.75;;
10410;SDS011;5251;52.112;8.606;2023-12-04T01:24:28;13.48;;;9.38;;
10410;SDS011;5251;52.112;8.606;2023-12-04T01:26:54;13.75;;;9.48;;
10410;SDS011;5251;52.112;8.606;2023-12-04T01:29:20;12.38;;;9.10;;
10410;SDS011;5251;52.112;8.606;2023-12-04T01:31:45;12.63;;;8.82;;
10410;SDS011;5251;52.112;8.606;2023-12-04T01:34:11;11.60;;;8.55;;
10410;SDS011;5251;52.112;8.606;2023-12-04T01:36:39;12.27;;;9.10;;
10410;SDS011;5251;52.112;8.606;2023-12-04T01:39:06;12.80;;;9.30;;
10410;SDS011;5251;52.112;8.606;2023-12-04T01:41:31;13.15;;;9.05;;
10410;SDS011;5251;52.112;8.606;2023-12-04T01:43:57;12.15;;;8.93;;
10410;SDS011;5251;52.112;8.606;2023-12-04T01:46:22;13.43;;;9.38;;
10410;SDS011;5251;52.112;8.606;2023-12-04T01:48:48;12.85;;;8.38;;
10410;SDS011;5251;52.112;8.606;2023-12-04T01:51:14;12.65;;;8.85;;
10410;SDS011;5251;52.112;8.606;2023-12-04T01:53:42;12.52;;;9.05;;
10410;SDS011;5251;52.112;8.606;2023-12-04T01:56:08;12.18;;;8.57;;
10410;SDS011;5251;52.112;8.606;2023-12-04T01:58:35;10.98;;;7.82;;
10410;SDS011;5251;52.112;8.606;2023-12-04T02:01:01;14.90;;;9.55;;
10410;SDS011;5251;52.112;8.606;2023-12-04T02:03:28;13.73;;;8.68;;
10410;SDS011;5251;52.112;8.606;2023-12-04T02:05:54;12.48;;;8.98;;
10410;SDS011;5251;52.112;8.606;2023-12-04T02:08:21;13.23;;;9.20;;
10410;SDS011;5251;52.112;8.606;2023-12-04T02:10:47;12.55;;;8.75;;
10410;SDS011;5251;52.112;8.606;2023-12-04T02:13:13;12.27;;;9.05;;
10410;SDS011;5251;52.112;8.606;2023-12-04T02:15:39;13.48;;;9.20;;
10410;SDS011;5251;52.112;8.606;2023-12-04T02:18:05;13.68;;;9.07;;
10410;SDS011;5251;52.112;8.606;2023-12-04T02:20:31;14.20;;;9.48;;
10410;SDS011;5251;52.112;8.606;2023-12-04T02:22:58;12.43;;;8.77;;
10410;SDS011;5251;52.112;8.606;2023-12-04T02:25:24;13.70;;;9.68;;
10410;SDS011;5251;52.112;8.606;2023-12-04T02:27:50;14.10;;;10.13;;
10410;SDS011;5251;52.112;8.606;2023-12-04T02:30:19;15.80;;;10.80;;
10410;SDS011;5251;52.112;8.606;2023-12-04T02:32:48;18.05;;;11.43;;
10410;SDS011;5251;52.112;8.606;2023-12-04T02:35:16;17.17;;;11.27;;
10410;SDS011;5251;52.112;8.606;2023-12-04T02:37:45;16.65;;;11.40;;
10410;SDS011;5251;52.112;8.606;2023-12-04T02:40:12;17.08;;;11.23;;
10410;SDS011;5251;52.112;8.606;2023-12-04T02:42:38;15.48;;;11.25;;
10410;SDS011;5251;52.112;8.606;2023-12-04T02:45:04;16.00;;;10.98;;
10410;SDS011;5251;52.112;8.606;2023-12-04T02:47:30;17.35;;;11.40;;
10410;SDS011;5251;52.112;8.606;2023-12-04T02:49:56;15.82;;;10.93;;
10410;SDS011;5251;52.112;8.606;2023-12-04T02:52:21;16.88;;;11.77;;
10410;SDS011;5251;52.112;8.606;2023-12-04T02:54:47;16.92;;;11.50;;
10410;SDS011;5251;52.112;8.606;2023-12-04T02:57:13;16.15;;;11.15;;
10410;SDS011;5251;52.112;8.606;2023-12-04T02:59:38;19.38;;;12.35;;
10410;SDS011;5251;52.112;8.606;2023-12-04T03:02:04;16.02;;;10.90;;
10410;SDS011;5251;52.112;8.606;2023-12-04T03:04:30;16.90;;;11.07;;
10410;SDS011;5251;52.112;8.606;2023-12-04T03:06:56;16.50;;;11.18;;
10410;SDS011;5251;52.112;8.606;2023-12-04T03:09:21;16.15;;;11.32;;
10410;SDS011;5251;52.112;8.606;2023-12-04T03:11:47;14.68;;;10.00;;
10410;SDS011;5251;52.112;8.606;2023-12-04T03:14:13;16.83;;;11.00;;
10410;SDS011;5251;52.112;8.606;2023-12-04T03:16:39;17.23;;;11.05;;
10410;SDS011;5251;52.112;8.606;2023-12-04T03:19:05;15.68;;;10.55;;
10410;SDS011;5251;52.112;8.606;2023-12-04T03:21:30;14.23;;;10.43;;
10410;SDS011;5251;52.112;8.606;2023-12-04T03:23:56;15.63;;;11.05;;
10410;SDS011;5251;52.112;8.606;2023-12-04T03:26:22;13.88;;;10.00;;
10410;SDS011;5251;52.112;8.606;2023-12-04T03:28:47;15.73;;;10.35;;
10410;SDS011;5251;52.112;8.606;2023-12-04T03:31:13;14.52;;;10.32;;
10410;SDS011;5251;52.112;8.606;2023-12-04T03:33:38;14.48;;;10.00;;
10410;SDS011;5251;52.112;8.606;2023-12-04T03:36:04;17.70;;;10.93;;
10410;SDS011;5251;52.112;8.606;2023-12-04T03:38:30;15.75;;;10.55;;
10410;SDS011;5251;52.112;8.606;2023-12-04T03:40:56;14.43;;;10.48;;
10410;SDS011;5251;52.112;8.606;2023-12-04T03:43:21;14.38;;;9.90;;
10410;SDS011;5251;52.112;8.606;2023-12-04T03:45:47;14.73;;;9.93;;
10410;SDS011;5251;52.112;8.606;2023-12-04T03:48:12;14.02;;;10.60;;
10410;SDS011;5251;52.112;8.606;2023-12-04T03:50:38;16.85;;;10.90;;
10410;SDS011;5251;52.112;8.606;2023-12-04T03:53:04;15.52;;;10.45;;
10410;SDS011;5251;52.112;8.606;2023-12-04T03:55:29;15.13;;;10.70;;
10410;SDS011;5251;52.112;8.606;2023-12-04T03:57:56;15.35;;;9.93;;
10410;SDS011;5251;52.112;8.606;2023-12-04T04:00:22;14.05;;;9.68;;
10410;SDS011;5251;52.112;8.606;2023-12-04T04:02:48;13.40;;;9.55;;
10410;SDS011;5251;52.112;8.606;2023-12-04T04:05:14;14.20;;;10.05;;
10410;SDS011;5251;52.112;8.606;2023-12-04T04:07:40;14.55;;;10.35;;
10410;SDS011;5251;52.112;8.606;2023-12-04T04:10:06;15.00;;;9.65;;
10410;SDS011;5251;52.112;8.606;2023-12-04T04:12:32;14.20;;;9.73;;
10410;SDS011;5251;52.112;8.606;2023-12-04T04:14:58;15.45;;;10.52;;
10410;SDS011;5251;52.112;8.606;2023-12-04T04:17:24;14.13;;;9.85;;
10410;SDS011;5251;52.112;8.606;2023-12-04T04:19:52;15.35;;;10.10;;
10410;SDS011;5251;52.112;8.606;2023-12-04T04:22:22;15.00;;;10.05;;
10410;SDS011;5251;52.112;8.606;2023-12-04T04:24:48;13.48;;;9.55;;
10410;SDS011;5251;52.112;8.606;2023-12-04T04:27:14;13.63;;;9.27;;
10410;SDS011;5251;52.112;8.606;2023-12-04T04:29:40;13.77;;;9.80;;
10410;SDS011;5251;52.112;8.606;2023-12-04T04:32:05;14.75;;;9.68;;
10410;SDS011;5251;52.112;8.606;2023-12-04T04:34:31;12.40;;;9.32;;
10410;SDS011;5251;52.112;8.606;2023-12-04T04:36:57;14.70;;;9.52;;
10410;SDS011;5251;52.112;8.606;2023-12-04T04:39:22;15.45;;;10.10;;
10410;SDS011;5251;52.112;8.606;2023-12-04T04:41:48;12.07;;;8.82;;
10410;SDS011;5251;52.112;8.606;2023-12-04T04:44:14;13.57;;;9.25;;
10410;SDS011;5251;52.112;8.606;2023-12-04T04:46:39;13.60;;;9.43;;
10410;SDS011;5251;52.112;8.606;2023-12-04T04:49:05;11.52;;;8.98;;
10410;SDS011;5251;52.112;8.606;2023-12-04T04:51:31;13.73;;;9.50;;
10410;SDS011;5251;52.112;8.606;2023-12-04T04:53:58;13.45;;;9.27;;
10410;SDS011;5251;52.112;8.606;2023-12-04T04:56:24;11.93;;;8.98;;
10410;SDS011;5251;52.112;8.606;2023-12-04T04:58:50;13.30;;;9.32;;
10410;SDS011;5251;52.112;8.606;2023-12-04T05:01:15;14.68;;;9.27;;
10410;SDS011;5251;52.112;8.606;2023-12-04T05:03:41;12.07;;;9.00;;
10410;SDS011;5251;52.112;8.606;2023-12-04T05:06:07;13.60;;;8.85;;
10410;SDS011;5251;52.112;8.606;2023-12-04T05:08:32;12.93;;;8.80;;
10410;SDS011;5251;52.112;8.606;2023-12-04T05:10:58;12.80;;;8.70;;
10410;SDS011;5251;52.112;8.606;2023-12-04T05:13:24;12.25;;;8.77;;
10410;SDS011;5251;52.112;8.606;2023-12-04T05:15:49;12.30;;;8.95;;
10410;SDS011;5251;52.112;8.606;2023-12-04T05:18:15;11.23;;;8.57;;
10410;SDS011;5251;52.112;8.606;2023-12-04T05:20:40;12.02;;;8.25;;
10410;SDS011;5251;52.112;8.606;2023-12-04T05:23:06;13.30;;;9.00;;
10410;SDS011;5251;52.112;8.606;2023-12-04T05:25:31;12.57;;;8.48;;
10410;SDS011;5251;52.112;8.606;2023-12-04T05:27:57;11.95;;;8.88;;
10410;SDS011;5251;52.112;8.606;2023-12-04T05:30:23;12.75;;;8.73;;
10410;SDS011;5251;52.112;8.606;2023-12-04T05:32:48;12.20;;;9.02;;
10410;SDS011;5251;52.112;8.606;2023-12-04T05:35:15;11.48;;;8.20;;
10410;SDS011;5251;52.112;8.606;2023-12-04T05:37:41;11.63;;;8.50;;
10410;SDS011;5251;52.112;8.606;2023-12-04T05:40:06;10.75;;;8.00;;
10410;SDS011;5251;52.112;8.606;2023-12-04T05:42:33;12.23;;;8.10;;
10410;SDS011;5251;52.112;8.606;2023-12-04T05:44:58;12.13;;;8.40;;
10410;SDS011;5251;52.112;8.606;2023-12-04T05:47:25;10.68;;;7.82;;
10410;SDS011;5251;52.112;8.606;2023-12-04T05:49:51;11.05;;;7.95;;
10410;SDS011;5251;52.112;8.606;2023-12-04T05:52:16;11.88;;;8.75;;
10410;SDS011;5251;52.112;8.606;2023-12-04T05:54:42;10.52;;;7.55;;
10410;SDS011;5251;52.112;8.606;2023-12-04T05:57:08;11.35;;;8.25;;
10410;SDS011;5251;52.112;8.606;2023-12-04T05:59:33;11.23;;;7.90;;
10410;SDS011;5251;52.112;8.606;2023-12-04T06:01:59;10.93;;;7.85;;
10410;SDS011;5251;52.112;8.606;2023-12-04T06:04:26;11.45;;;8.10;;
10410;SDS011;5251;52.112;8.606;2023-12-04T06:06:51;10.60;;;8.00;;
10410;SDS011;5251;52.112;8.606;2023-12-04T06:09:17;11.10;;;8.48;;
10410;SDS011;5251;52.112;8.606;2023-12-04T06:11:42;10.88;;;8.00;;
10410;SDS011;5251;52.112;8.606;2023-12-04T06:14:08;11.15;;;8.15;;
10410;SDS011;5251;52.112;8.606;2023-12-04T06:16:34;11.45;;;8.23;;
10410;SDS011;5251;52.112;8.606;2023-12-04T06:18:59;10.73;;;7.93;;
10410;SDS011;5251;52.112;8.606;2023-12-04T06:21:25;11.82;;;8.02;;
10410;SDS011;5251;52.112;8.606;2023-12-04T06:23:50;9.70;;;7.22;;
10410;SDS011;5251;52.112;8.606;2023-12-04T06:26:16;9.75;;;7.80;;
10410;SDS011;5251;52.112;8.606;2023-12-04T06:28:43;11.55;;;8.20;;
10410;SDS011;5251;52.112;8.606;2023-12-04T06:31:09;13.48;;;8.75;;
10410;SDS011;5251;52.112;8.606;2023-12-04T06:33:35;11.07;;;8.73;;
10410;SDS011;5251;52.112;8.606;2023-12-04T06:36:01;10.57;;;7.75;;
10410;SDS011;5251;52.112;8.606;2023-12-04T06:38:27;11.15;;;7.93;;
10410;SDS011;5251;52.112;8.606;2023-12-04T06:40:57;10.88;;;8.05;;
10410;SDS011;5251;52.112;8.606;2023-12-04T06:43:23;10.57;;;8.13;;
10410;SDS011;5251;52.112;8.606;2023-12-04T06:45:49;11.05;;;8.15;;
10410;SDS011;5251;52.112;8.606;2023-12-04T06:48:15;11.73;;;8.82;;
10410;SDS011;5251;52.112;8.606;2023-12-04T06:50:40;11.13;;;8.52;;
10410;SDS011;5251;52.112;8.606;2023-12-04T06:53:06;11.20;;;7.82;;
10410;SDS011;5251;52.112;8.606;2023-12-04T06:55:32;10.40;;;7.90;;
10410;SDS011;5251;52.112;8.606;2023-12-04T06:57:57;10.93;;;7.85;;
10410;SDS011;5251;52.112;8.606;2023-12-04T07:00:23;11.10;;;7.55;;
10410;SDS011;5251;52.112;8.606;2023-12-04T07:02:49;11.00;;;8.02;;
10410;SDS011;5251;52.112;8.606;2023-12-04T07:05:15;10.73;;;7.68;;
10410;SDS011;5251;52.112;8.606;2023-12-04T07:07:41;9.98;;;7.95;;
10410;SDS011;5251;52.112;8.606;2023-12-04T07:10:07;10.88;;;8.07;;
10410;SDS011;5251;52.112;8.606;2023-12-04T07:12:33;9.82;;;7.65;;
10410;SDS011;5251;52.112;8.606;2023-12-04T07:14:58;10.50;;;7.68;;
10410;SDS011;5251;52.112;8.606;2023-12-04T07:17:24;11.10;;;7.90;;
10410;SDS011;5251;52.112;8.606;2023-12-04T07:19:50;10.93;;;7.63;;
10410;SDS011;5251;52.112;8.606;2023-12-04T07:22:15;11.38;;;7.90;;
10410;SDS011;5251;52.112;8.606;2023-12-04T07:24:41;11.82;;;7.72;;
10410;SDS011;5251;52.112;8.606;2023-12-04T07:27:06;11.43;;;8.00;;
10410;SDS011;5251;52.112;8.606;2023-12-04T07:29:34;11.88;;;8.40;;
10410;SDS011;5251;52.112;8.606;2023-12-04T07:31:59;9.73;;;7.50;;
10410;SDS011;5251;52.112;8.606;2023-12-04T07:34:25;10.68;;;7.75;;
10410;SDS011;5251;52.112;8.606;2023-12-04T07:36:51;10.15;;;7.85;;
10410;SDS011;5251;52.112;8.606;2023-12-04T07:39:17;10.23;;;7.65;;
10410;SDS011;5251;52.112;8.606;2023-12-04T07:41:42;11.45;;;8.07;;
10410;SDS011;5251;52.112;8.606;2023-12-04T07:44:08;9.20;;;7.22;;
10410;SDS011;5251;52.112;8.606;2023-12-04T07:46:33;10.23;;;7.30;;
10410;SDS011;5251;52.112;8.606;2023-12-04T07:48:59;10.77;;;8.00;;
10410;SDS011;5251;52.112;8.606;2023-12-04T07:51:25;10.60;;;7.78;;
10410;SDS011;5251;52.112;8.606;2023-12-04T07:53:50;10.63;;;7.75;;
10410;SDS011;5251;52.112;8.606;2023-12-04T07:56:16;9.82;;;7.10;;
10410;SDS011;5251;52.112;8.606;2023-12-04T07:58:42;11.27;;;7.70;;
10410;SDS011;5251;52.112;8.606;2023-12-04T08:01:07;10.88;;;8.13;;
10410;SDS011;5251;52.112;8.606;2023-12-04T08:03:33;10.10;;;7.63;;
10410;SDS011;5251;52.112;8.606;2023-12-04T08:05:59;9.13;;;6.90;;
10410;SDS011;5251;52.112;8.606;2023-12-04T08:08:24;10.50;;;7.53;;
10410;SDS011;5251;52.112;8.606;2023-12-04T08:10:50;9.35;;;7.32;;
10410;SDS011;5251;52.112;8.606;2023-12-04T08:13:16;9.50;;;7.20;;
10410;SDS011;5251;52.112;8.606;2023-12-04T08:15:42;10.70;;;7.72;;
10410;SDS011;5251;52.112;8.606;2023-12-04T08:18:08;10.63;;;7.25;;
10410;SDS011;5251;52.112;8.606;2023-12-04T08:20:34;9.77;;;7.57;;
10410;SDS011;5251;52.112;8.606;2023-12-04T08:22:59;9.98;;;7.20;;
10410;SDS011;5251;52.112;8.606;2023-12-04T08:25:25;10.82;;;7.57;;
10410;SDS011;5251;52.112;8.606;2023-12-04T08:27:50;9.93;;;7.30;;
10410;SDS011;5251;52.112;8.606;2023-12-04T08:30:16;9.77;;;7.15;;
10410;SDS011;5251;52.112;8.606;2023-12-04T08:32:42;10.65;;;7.97;;
10410;SDS011;5251;52.112;8.606;2023-12-04T08:35:08;10.23;;;7.57;;
10410;SDS011;5251;52.112;8.606;2023-12-04T08:37:34;10.27;;;7.50;;
10410;SDS011;5251;52.112;8.606;2023-12-04T08:39:59;9.98;;;7.65;;
10410;SDS011;5251;52.112;8.606;2023-12-04T08:42:25;11.13;;;7.90;;
10410;SDS011;5251;52.112;8.606;2023-12-04T08:44:51;11.20;;;7.95;;
10410;SDS011;5251;52.112;8.606;2023-12-04T08:47:16;9.10;;;6.93;;
10410;SDS011;5251;52.112;8.606;2023-12-04T08:49:43;10.65;;;7.78;;
10410;SDS011;5251;52.112;8.606;2023-12-04T08:52:08;10.45;;;7.63;;
10410;SDS011;5251;52.112;8.606;2023-12-04T08:54:34;10.57;;;7.70;;
10410;SDS011;5251;52.112;8.606;2023-12-04T08:57:03;9.30;;;7.35;;
10410;SDS011;5251;52.112;8.606;2023-12-04T08:59:29;10.48;;;7.43;;
10410;SDS011;5251;52.112;8.606;2023-12-04T09:01:55;9.85;;;7.50;;
10410;SDS011;5251;52.112;8.606;2023-12-04T09:04:20;9.07;;;7.22;;
10410;SDS011;5251;52.112;8.606;2023-12-04T09:06:46;11.73;;;8.02;;
10410;SDS011;5251;52.112;8.606;2023-12-04T09:09:12;9.65;;;7.45;;
10410;SDS011;5251;52.112;8.606;2023-12-04T09:11:43;10.75;;;7.75;;
10410;SDS011;5251;52.112;8.606;2023-12-04T09:14:09;10.43;;;7.60;;
10410;SDS011;5251;52.112;8.606;2023-12-04T09:16:35;9.18;;;7.32;;
10410;SDS011;5251;52.112;8.606;2023-12-04T09:19:00;9.77;;;7.35;;
10410;SDS011;5251;52.112;8.606;2023-12-04T09:21:26;9.77;;;7.72;;
10410;SDS011;5251;52.112;8.606;2023-12-04T09:23:52;10.38;;;7.25;;
10410;SDS011;5251;52.112;8.606;2023-12-04T09:26:18;10.55;;;7.45;;
10410;SDS011;5251;52.112;8.606;2023-12-04T09:28:43;9.95;;;7.50;;
10410;SDS011;5251;52.112;8.606;2023-12-04T09:31:09;26.58;;;18.58;;
10410;SDS011;5251;52.112;8.606;2023-12-04T09:33:35;13.13;;;8.77;;
10410;SDS011;5251;52.112;8.606;2023-12-04T09:36:01;12.38;;;8.68;;
10410;SDS011;5251;52.112;8.606;2023-12-04T09:38:28;10.50;;;8.40;;
10410;SDS011;5251;52.112;8.606;2023-12-04T09:40:54;10.52;;;7.80;;
10410;SDS011;5251;52.112;8.606;2023-12-04T09:43:27;9.93;;;7.68;;
10410;SDS011;5251;52.112;8.606;2023-12-04T09:45:56;11.30;;;8.10;;
10410;SDS011;5251;52.112;8.606;2023-12-04T09:48:22;10.13;;;7.63;;
10410;SDS011;5251;52.112;8.606;2023-12-04T09:50:51;10.15;;;7.30;;
10410;SDS011;5251;52.112;8.606;2023-12-04T09:53:17;9.43;;;7.10;;
10410;SDS011;5251;52.112;8.606;2023-12-04T09:55:46;8.82;;;6.90;;
10410;SDS011;5251;52.112;8.606;2023-12-04T09:58:14;9.13;;;7.13;;
10410;SDS011;5251;52.112;8.606;2023-12-04T10:00:41;9.30;;;7.22;;
10410;SDS011;5251;52.112;8.606;2023-12-04T10:03:08;9.02;;;7.10;;
10410;SDS011;5251;52.112;8.606;2023-12-04T10:05:34;9.25;;;6.65;;
10410;SDS011;5251;52.112;8.606;2023-12-04T10:08:00;9.05;;;6.78;;
10410;SDS011;5251;52.112;8.606;2023-12-04T10:10:25;8.40;;;6.63;;
10410;SDS011;5251;52.112;8.606;2023-12-04T10:12:51;9.30;;;6.90;;
10410;SDS011;5251;52.112;8.606;2023-12-04T10:15:17;8.70;;;6.90;;
10410;SDS011;5251;52.112;8.606;2023-12-04T10:17:43;8.32;;;6.45;;
10410;SDS011;5251;52.112;8.606;2023-12-04T10:22:57;8.80;;;6.82;;
10410;SDS011;5251;52.112;8.606;2023-12-04T10:25:27;7.78;;;6.18;;
10410;SDS011;5251;52.112;8.606;2023-12-04T10:27:54;9.43;;;6.80;;
10410;SDS011;5251;52.112;8.606;2023-12-04T10:30:40;8.38;;;6.43;;
10410;SDS011;5251;52.112;8.606;2023-12-04T10:33:07;9.75;;;7.05;;
10410;SDS011;5251;52.112;8.606;2023-12-04T10:35:34;9.77;;;7.22;;
10410;SDS011;5251;52.112;8.606;2023-12-04T10:38:04;9.15;;;6.93;;
10410;SDS011;5251;52.112;8.606;2023-12-04T10:40:31;8.75;;;6.70;;
10410;SDS011;5251;52.112;8.606;2023-12-04T10:43:34;9.05;;;6.70;;
10410;SDS011;5251;52.112;8.606;2023-12-04T10:45:52;9.48;;;7.15;;
10410;SDS011;5251;52.112;8.606;2023-12-04T10:48:19;9.32;;;7.10;;
10410;SDS011;5251;52.112;8.606;2023-12-04T10:50:46;9.20;;;6.88;;
10410;SDS011;5251;52.112;8.606;2023-12-04T10:53:15;8.52;;;6.47;;
10410;SDS011;5251;52.112;8.606;2023-12-04T10:55:41;8.95;;;6.68;;
10410;SDS011;5251;52.112;8.606;2023-12-04T10:58:12;8.75;;;6.82;;
10410;SDS011;5251;52.112;8.606;2023-12-04T11:00:46;10.32;;;7.03;;
10410;SDS011;5251;52.112;8.606;2023-12-04T11:03:25;9.57;;;7.10;;
10410;SDS011;5251;52.112;8.606;2023-12-04T11:06:01;8.73;;;6.63;;
10410;SDS011;5251;52.112;8.606;2023-12-04T11:08:29;9.35;;;6.47;;
10410;SDS011;5251;52.112;8.606;2023-12-04T11:10:59;9.45;;;7.35;;
10410;SDS011;5251;52.112;8.606;2023-12-04T11:13:29;9.15;;;6.93;;
10410;SDS011;5251;52.112;8.606;2023-12-04T11:16:07;9.38;;;6.97;;
10410;SDS011;5251;52.112;8.606;2023-12-04T11:18:43;9.35;;;7.22;;
10410;SDS011;5251;52.112;8.606;2023-12-04T11:21:13;8.50;;;6.65;;
10410;SDS011;5251;52.112;8.606;2023-12-04T11:23:40;9.15;;;7.00;;
10410;SDS011;5251;52.112;8.606;2023-12-04T11:26:08;9.20;;;6.72;;
10410;SDS011;5251;52.112;8.606;2023-12-04T11:28:35;9.15;;;6.70;;
10410;SDS011;5251;52.112;8.606;2023-12-04T11:31:03;8.43;;;6.50;;
10410;SDS011;5251;52.112;8.606;2023-12-04T11:33:34;8.35;;;6.53;;
10410;SDS011;5251;52.112;8.606;2023-12-04T11:36:09;10.35;;;7.28;;
10410;SDS011;5251;52.112;8.606;2023-12-04T11:38:43;8.50;;;6.43;;
10410;SDS011;5251;52.112;8.606;2023-12-04T11:41:19;8.50;;;6.70;;
10410;SDS011;5251;52.112;8.606;2023-12-04T11:43:46;9.23;;;6.60;;
10410;SDS011;5251;52.112;8.606;2023-12-04T11:46:13;8.38;;;6.18;;
10410;SDS011;5251;52.112;8.606;2023-12-04T11:48:45;8.32;;;6.55;;
10410;SDS011;5251;52.112;8.606;2023-12-04T11:51:12;8.05;;;6.72;;
10410;SDS011;5251;52.112;8.606;2023-12-04T11:54:19;8.18;;;6.70;;
10410;SDS011;5251;52.112;8.606;2023-12-04T11:57:34;8.13;;;6.45;;
10410;SDS011;5251;52.112;8.606;2023-12-04T11:59:38;7.70;;;6.47;;
10410;SDS011;5251;52.112;8.606;2023-12-04T12:02:07;8.70;;;6.22;;
10410;SDS011;5251;52.112;8.606;2023-12-04T12:04:33;7.38;;;6.18;;
10410;SDS011;5251;52.112;8.606;2023-12-04T12:06:59;8.15;;;6.40;;
10410;SDS011;5251;52.112;8.606;2023-12-04T12:09:30;8.93;;;6.00;;
10410;SDS011;5251;52.112;8.606;2023-12-04T12:11:58;8.88;;;6.65;;
10410;SDS011;5251;52.112;8.606;2023-12-04T12:14:28;7.93;;;6.25;;
10410;SDS011;5251;52.112;8.606;2023-12-04T12:16:55;8.80;;;6.30;;
10410;SDS011;5251;52.112;8.606;2023-12-04T12:19:23;8.07;;;6.28;;
10410;SDS011;5251;52.112;8.606;2023-12-04T12:21:49;8.68;;;6.78;;
10410;SDS011;5251;52.112;8.606;2023-12-04T12:24:16;7.80;;;6.13;;
10410;SDS011;5251;52.112;8.606;2023-12-04T12:26:43;7.88;;;5.88;;
10410;SDS011;5251;52.112;8.606;2023-12-04T12:29:10;7.43;;;5.78;;
10410;SDS011;5251;52.112;8.606;2023-12-04T12:31:36;9.35;;;6.63;;
10410;SDS011;5251;52.112;8.606;2023-12-04T12:34:01;8.20;;;6.15;;
10410;SDS011;5251;52.112;8.606;2023-12-04T12:36:28;7.90;;;5.70;;
10410;SDS011;5251;52.112;8.606;2023-12-04T12:38:54;8.65;;;6.20;;
10410;SDS011;5251;52.112;8.606;2023-12-04T12:41:19;7.60;;;5.82;;
10410;SDS011;5251;52.112;8.606;2023-12-04T12:43:45;6.85;;;5.45;;
10410;SDS011;5251;52.112;8.606;2023-12-04T12:46:12;7.03;;;5.63;;
10410;SDS011;5251;52.112;8.606;2023-12-04T12:48:38;7.95;;;6.03;;
10410;SDS011;5251;52.112;8.606;2023-12-04T12:51:04;7.20;;;5.90;;
10410;SDS011;5251;52.112;8.606;2023-12-04T12:53:33;7.78;;;5.95;;
10410;SDS011;5251;52.112;8.606;2023-12-04T12:56:00;8.50;;;5.90;;
10410;SDS011;5251;52.112;8.606;2023-12-04T12:58:26;7.93;;;6.25;;
10410;SDS011;5251;52.112;8.606;2023-12-04T13:00:52;7.72;;;6.20;;
10410;SDS011;5251;52.112;8.606;2023-12-04T13:03:18;8.75;;;6.40;;
10410;SDS011;5251;52.112;8.606;2023-12-04T13:05:45;7.57;;;5.72;;
10410;SDS011;5251;52.112;8.606;2023-12-04T13:08:11;7.20;;;5.70;;
10410;SDS011;5251;52.112;8.606;2023-12-04T13:10:37;7.25;;;5.75;;
10410;SDS011;5251;52.112;8.606;2023-12-04T13:13:03;7.65;;;5.78;;
10410;SDS011;5251;52.112;8.606;2023-12-04T13:15:29;6.20;;;5.40;;
10410;SDS011;5251;52.112;8.606;2023-12-04T13:17:55;7.75;;;5.57;;
10410;SDS011;5251;52.112;8.606;2023-12-04T13:20:21;7.45;;;5.82;;
10410;SDS011;5251;52.112;8.606;2023-12-04T13:22:48;6.28;;;5.40;;
10410;SDS011;5251;52.112;8.606;2023-12-04T13:25:14;6.93;;;5.20;;
10410;SDS011;5251;52.112;8.606;2023-12-04T13:27:40;7.60;;;5.80;;
10410;SDS011;5251;52.112;8.606;2023-12-04T13:30:08;7.90;;;6.13;;
10410;SDS011;5251;52.112;8.606;2023-12-04T13:32:35;7.70;;;5.70;;
10410;SDS011;5251;52.112;8.606;2023-12-04T13:35:05;6.90;;;5.60;;
10410;SDS011;5251;52.112;8.606;2023-12-04T13:37:33;7.90;;;6.38;;
10410;SDS011;5251;52.112;8.606;2023-12-04T13:40:00;7.90;;;6.22;;
10410;SDS011;5251;52.112;8.606;2023-12-04T13:42:29;8.57;;;6.95;;
10410;SDS011;5251;52.112;8.606;2023-12-04T13:45:13;7.53;;;5.68;;
10410;SDS011;5251;52.112;8.606;2023-12-04T13:47:39;6.72;;;5.32;;
10410;SDS011;5251;52.112;8.606;2023-12-04T13:50:07;7.68;;;6.05;;
10410;SDS011;5251;52.112;8.606;2023-12-04T13:52:34;6.95;;;5.15;;
10410;SDS011;5251;52.112;8.606;2023-12-04T13:55:00;7.85;;;5.72;;
10410;SDS011;5251;52.112;8.606;2023-12-04T13:57:26;8.70;;;6.47;;
10410;SDS011;5251;52.112;8.606;2023-12-04T14:00:09;7.72;;;5.80;;
10410;SDS011;5251;52.112;8.606;2023-12-04T14:02:35;7.72;;;5.90;;
10410;SDS011;5251;52.112;8.606;2023-12-04T14:05:02;7.38;;;5.53;;
10410;SDS011;5251;52.112;8.606;2023-12-04T14:07:28;7.32;;;5.88;;
10410;SDS011;5251;52.112;8.606;2023-12-04T14:09:54;7.65;;;5.95;;
10410;SDS011;5251;52.112;8.606;2023-12-04T14:12:20;8.65;;;6.20;;
10410;SDS011;5251;52.112;8.606;2023-12-04T14:14:45;7.55;;;5.90;;
10410;SDS011;5251;52.112;8.606;2023-12-04T14:17:12;7.60;;;5.72;;
10410;SDS011;5251;52.112;8.606;2023-12-04T14:19:37;6.47;;;5.20;;
10410;SDS011;5251;52.112;8.606;2023-12-04T14:22:04;7.32;;;5.80;;
10410;SDS011;5251;52.112;8.606;2023-12-04T14:24:30;6.57;;;4.97;;
10410;SDS011;5251;52.112;8.606;2023-12-04T14:26:56;7.15;;;5.70;;
10410;SDS011;5251;52.112;8.606;2023-12-04T14:29:22;6.78;;;5.75;;
10410;SDS011;5251;52.112;8.606;2023-12-04T14:31:48;9.60;;;5.65;;
10410;SDS011;5251;52.112;8.606;2023-12-04T14:34:14;7.25;;;5.32;;
10410;SDS011;5251;52.112;8.606;2023-12-04T14:36:40;6.90;;;5.45;;
10410;SDS011;5251;52.112;8.606;2023-12-04T14:39:05;7.55;;;5.57;;
10410;SDS011;5251;52.112;8.606;2023-12-04T14:41:31;6.63;;;5.43;;
10410;SDS011;5251;52.112;8.606;2023-12-04T14:43:57;7.00;;;5.35;;
10410;SDS011;5251;52.112;8.606;2023-12-04T14:46:23;7.32;;;5.28;;
10410;SDS011;5251;52.112;8.606;2023-12-04T14:48:48;6.95;;;5.40;;
10410;SDS011;5251;52.112;8.606;2023-12-04T14:51:14;6.53;;;5.05;;